Terminal Aerodrome Forecast
Issued by NWS Mt. Holly, NJ

Home | Current Version | Previous Version | Text Only | Print | Product List | Glossary On
Versions: 1 2 3 4 5 6 7 8 9 10 11 12 13 14 15 16 17 18 19 20 21 22 23 24 25 26 27 28
000
FTUS41 KPHI 261827 AAA
TAFPHL
TAF AMD
KPHL 261827Z 2618/2724 19009G22KT P6SM SCT011 OVC022
     FM261900 20014G29KT P6SM BKN025
     FM270000 23010KT P6SM -SHRA SCT015 BKN025
      TEMPO 2701/2703 33017KT 3SM SHRA BR OVC008
     FM270300 28010KT 4SM -SHRA BR OVC015
     FM270600 33010G18KT P6SM -SHRA BKN025 BKN040
     FM270900 35010KT 3SM SHRA BR OVC008
     FM271400 34008KT P6SM BKN040 BKN100
     FM272300 34005KT P6SM BKN150=

USA.gov is the U.S. government's official web portal to all federal, state and local government web resources and services.